createdAt,value
2017-07-09T00:00:13.237Z,0
2017-07-09T00:00:53.698Z,0
2017-07-09T00:01:34.156Z,0
2017-07-09T00:02:14.615Z,0
2017-07-09T00:02:55.077Z,0
2017-07-09T00:03:35.537Z,0
2017-07-09T00:04:15.999Z,0
2017-07-09T00:04:56.457Z,0
2017-07-09T00:05:36.908Z,0
2017-07-09T00:06:17.368Z,0
2017-07-09T00:06:57.826Z,0
2017-07-09T00:07:38.282Z,0
2017-07-09T00:08:18.735Z,0
2017-07-09T00:08:59.193Z,0
2017-07-09T00:09:39.654Z,0
2017-07-09T00:10:20.108Z,0
2017-07-09T00:11:00.558Z,0
2017-07-09T00:11:41.015Z,0
2017-07-09T00:12:21.479Z,0
2017-07-09T00:13:01.940Z,0
2017-07-09T00:13:42.401Z,0
2017-07-09T00:14:22.865Z,0
2017-07-09T00:15:03.352Z,0
2017-07-09T00:15:43.811Z,0
2017-07-09T00:16:24.270Z,0
2017-07-09T00:17:04.729Z,0
2017-07-09T00:17:45.188Z,0
2017-07-09T00:18:25.646Z,0
2017-07-09T00:19:06.100Z,0
2017-07-09T00:19:46.559Z,0
2017-07-09T00:20:27.069Z,0
2017-07-09T00:21:07.480Z,0
2017-07-09T00:21:47.929Z,0
2017-07-09T00:22:28.382Z,0
2017-07-09T00:23:08.843Z,0
2017-07-09T00:23:49.306Z,0
2017-07-09T00:24:29.768Z,0
2017-07-09T00:25:10.225Z,0
2017-07-09T00:25:50.733Z,0
2017-07-09T00:26:31.139Z,0
2017-07-09T00:27:11.594Z,0
2017-07-09T00:27:52.033Z,0
2017-07-09T00:28:32.508Z,0
2017-07-09T00:29:12.982Z,0
2017-07-09T00:29:53.421Z,0
2017-07-09T00:30:33.884Z,0
2017-07-09T00:31:14.338Z,0
2017-07-09T00:31:54.805Z,0
2017-07-09T00:32:35.268Z,0
2017-07-09T00:33:15.720Z,0
2017-07-09T00:33:56.174Z,0
2017-07-09T00:34:36.632Z,0
2017-07-09T00:35:17.092Z,0
2017-07-09T00:35:57.545Z,0
2017-07-09T00:36:38.003Z,0
2017-07-09T00:37:18.468Z,0
2017-07-09T00:37:58.927Z,0
2017-07-09T00:38:39.369Z,0
2017-07-09T00:39:19.827Z,0
2017-07-09T00:40:00.287Z,0
2017-07-09T00:40:40.746Z,0
2017-07-09T00:41:21.199Z,0
2017-07-09T00:42:01.657Z,0
2017-07-09T00:42:42.115Z,0
2017-07-09T00:43:22.575Z,0
2017-07-09T00:44:03.031Z,0
2017-07-09T00:44:43.490Z,0
2017-07-09T00:45:23.949Z,0
2017-07-09T00:46:04.401Z,0
2017-07-09T00:46:44.862Z,0
2017-07-09T00:47:25.315Z,0
2017-07-09T00:48:05.772Z,0
2017-07-09T00:48:46.220Z,0
2017-07-09T00:49:26.711Z,0
2017-07-09T00:50:07.133Z,0
2017-07-09T00:50:47.590Z,0
2017-07-09T00:51:28.043Z,0
2017-07-09T00:52:08.499Z,0
2017-07-09T00:52:48.963Z,0
2017-07-09T00:53:29.431Z,0
2017-07-09T00:54:09.890Z,0
2017-07-09T00:54:50.351Z,0
2017-07-09T00:55:30.807Z,0
2017-07-09T00:56:11.259Z,0
2017-07-09T00:56:51.719Z,0
2017-07-09T00:57:32.177Z,0
2017-07-09T00:58:12.631Z,0
2017-07-09T00:58:53.088Z,0
2017-07-09T00:59:33.534Z,0
2017-07-09T01:00:13.989Z,0
2017-07-09T01:00:54.454Z,0
2017-07-09T01:01:34.911Z,0
2017-07-09T01:02:15.368Z,0
2017-07-09T01:02:55.829Z,0
2017-07-09T01:03:36.287Z,0
2017-07-09T01:04:16.743Z,0
2017-07-09T01:04:57.203Z,0
2017-07-09T01:05:37.655Z,0
2017-07-09T01:06:18.111Z,0
2017-07-09T01:06:58.567Z,0
2017-07-09T01:07:39.031Z,0
2017-07-09T01:08:19.485Z,0
2017-07-09T01:08:59.944Z,0
2017-07-09T01:09:40.397Z,0
2017-07-09T01:10:20.872Z,0
2017-07-09T01:11:01.328Z,0
2017-07-09T01:11:41.790Z,0
2017-07-09T01:12:22.247Z,0
2017-07-09T01:13:02.702Z,0
2017-07-09T01:13:43.186Z,0
2017-07-09T01:14:23.650Z,0
2017-07-09T01:15:04.102Z,0
2017-07-09T01:15:44.557Z,0
2017-07-09T01:16:25.015Z,0
2017-07-09T01:17:05.473Z,0
2017-07-09T01:17:45.935Z,0
2017-07-09T01:18:26.394Z,0
2017-07-09T01:19:06.844Z,0
2017-07-09T01:19:47.312Z,0
2017-07-09T01:20:27.779Z,0
2017-07-09T01:21:08.241Z,0
2017-07-09T01:21:48.714Z,0
2017-07-09T01:22:29.166Z,0
2017-07-09T01:23:09.629Z,0
2017-07-09T01:23:50.090Z,0
2017-07-09T01:24:30.548Z,0
2017-07-09T01:25:11.001Z,0
2017-07-09T01:25:51.457Z,0
2017-07-09T01:26:31.922Z,0
2017-07-09T01:27:12.377Z,0
2017-07-09T01:27:52.834Z,0
2017-07-09T01:28:33.298Z,0
2017-07-09T01:29:13.801Z,0
2017-07-09T01:29:54.255Z,0
2017-07-09T01:30:34.716Z,0
2017-07-09T01:31:15.171Z,0
2017-07-09T01:31:55.619Z,0
2017-07-09T01:32:36.077Z,0
2017-07-09T01:33:16.526Z,0
2017-07-09T01:33:56.981Z,0
2017-07-09T01:34:37.454Z,0
2017-07-09T01:35:17.901Z,0
2017-07-09T01:35:58.355Z,0
2017-07-09T01:36:38.861Z,0
2017-07-09T01:37:19.305Z,0
2017-07-09T01:37:59.774Z,0
2017-07-09T01:38:40.237Z,0
2017-07-09T01:39:20.693Z,0
2017-07-09T01:40:01.143Z,0
2017-07-09T01:40:41.607Z,0
2017-07-09T01:41:22.067Z,0
2017-07-09T01:42:02.519Z,0
2017-07-09T01:42:42.968Z,0
2017-07-09T01:43:23.426Z,0
2017-07-09T01:44:03.884Z,0
2017-07-09T01:44:44.320Z,0
2017-07-09T01:45:24.786Z,0
2017-07-09T01:46:05.239Z,0
2017-07-09T01:46:45.691Z,0
2017-07-09T01:47:26.141Z,0
2017-07-09T01:48:06.618Z,0
2017-07-09T01:48:47.077Z,0
2017-07-09T01:49:27.541Z,0
2017-07-09T01:50:08.001Z,0
2017-07-09T01:50:48.461Z,0
2017-07-09T01:51:28.918Z,0
2017-07-09T01:52:09.374Z,0
2017-07-09T01:52:49.829Z,0
2017-07-09T01:53:30.295Z,0
2017-07-09T01:54:10.806Z,0
2017-07-09T01:54:51.215Z,0
2017-07-09T01:55:31.671Z,0
2017-07-09T01:56:12.140Z,0
2017-07-09T01:56:52.598Z,0
2017-07-09T01:57:33.057Z,0
2017-07-09T01:58:13.516Z,0
2017-07-09T01:58:53.965Z,0
2017-07-09T01:59:34.423Z,0
2017-07-09T02:00:14.886Z,0
2017-07-09T02:00:55.339Z,0
2017-07-09T02:01:35.803Z,0
2017-07-09T02:02:16.261Z,0
2017-07-09T02:02:56.713Z,0
2017-07-09T02:03:37.176Z,0
2017-07-09T02:04:17.636Z,0
2017-07-09T02:04:58.104Z,0
2017-07-09T02:05:38.566Z,0
2017-07-09T02:06:19.017Z,0
2017-07-09T02:06:59.566Z,0
2017-07-09T02:07:40.025Z,0
2017-07-09T02:08:20.482Z,0
2017-07-09T02:09:00.951Z,0
2017-07-09T02:09:41.400Z,0
2017-07-09T02:10:21.864Z,0
2017-07-09T02:11:02.319Z,0
2017-07-09T02:11:42.776Z,0
2017-07-09T02:12:23.225Z,0
2017-07-09T02:13:03.685Z,0
2017-07-09T02:13:44.144Z,0
2017-07-09T02:14:24.609Z,0
2017-07-09T02:15:05.050Z,0
2017-07-09T02:15:45.505Z,0
2017-07-09T02:16:25.971Z,0
2017-07-09T02:17:06.430Z,0
2017-07-09T02:17:46.887Z,0
2017-07-09T02:18:27.342Z,0
2017-07-09T02:19:07.799Z,0
2017-07-09T02:19:48.253Z,0
2017-07-09T02:20:28.727Z,0
2017-07-09T02:21:09.187Z,0
2017-07-09T02:21:49.640Z,0
2017-07-09T02:22:30.103Z,0
2017-07-09T02:23:10.559Z,0
2017-07-09T02:23:51.018Z,0
2017-07-09T02:24:31.700Z,0
2017-07-09T02:25:12.177Z,0
2017-07-09T02:25:52.630Z,0
2017-07-09T02:26:33.085Z,0
2017-07-09T02:27:13.549Z,0
2017-07-09T02:27:54.005Z,0
2017-07-09T02:28:34.462Z,0
2017-07-09T02:29:14.924Z,0
2017-07-09T02:29:55.383Z,0
2017-07-09T02:30:35.839Z,0
2017-07-09T02:31:16.284Z,0
2017-07-09T02:31:56.745Z,0
2017-07-09T02:32:37.206Z,0
2017-07-09T02:33:17.665Z,0
2017-07-09T02:33:58.126Z,0
2017-07-09T02:34:38.572Z,0
2017-07-09T02:35:19.026Z,0
2017-07-09T02:35:59.492Z,0
2017-07-09T02:36:39.953Z,0
2017-07-09T02:37:20.413Z,0
2017-07-09T02:38:00.869Z,0
2017-07-09T02:38:41.327Z,0
2017-07-09T02:39:21.790Z,0
2017-07-09T02:40:02.247Z,0
2017-07-09T02:40:42.708Z,0
2017-07-09T02:41:23.180Z,0
2017-07-09T02:42:03.637Z,0
2017-07-09T02:42:44.095Z,0
2017-07-09T02:43:24.555Z,0
2017-07-09T02:44:05.010Z,0
2017-07-09T02:44:45.473Z,0
2017-07-09T02:45:25.927Z,0
2017-07-09T02:46:06.379Z,0
2017-07-09T02:46:46.847Z,0
2017-07-09T02:47:27.308Z,0
2017-07-09T02:48:07.773Z,0
2017-07-09T02:48:48.230Z,0
2017-07-09T02:49:28.702Z,0
2017-07-09T02:50:09.159Z,0
2017-07-09T02:50:49.617Z,0
2017-07-09T02:51:30.077Z,0
2017-07-09T02:52:10.542Z,0
2017-07-09T02:52:51.079Z,0
2017-07-09T02:53:31.535Z,0
2017-07-09T02:54:11.991Z,0
2017-07-09T02:54:52.452Z,0
2017-07-09T02:55:32.912Z,0
2017-07-09T02:56:13.371Z,0
2017-07-09T02:56:53.829Z,0
2017-07-09T02:57:34.285Z,0
2017-07-09T02:58:14.742Z,0
2017-07-09T02:58:55.195Z,0
2017-07-09T02:59:35.656Z,0
2017-07-09T03:00:16.113Z,0
2017-07-09T03:00:56.672Z,0
2017-07-09T03:01:37.134Z,0
2017-07-09T03:02:17.593Z,0
2017-07-09T03:02:58.049Z,0
2017-07-09T03:03:38.507Z,0
2017-07-09T03:04:18.966Z,0
2017-07-09T03:04:59.413Z,0
2017-07-09T03:05:39.874Z,0
2017-07-09T03:06:20.338Z,0
2017-07-09T03:07:00.796Z,0
2017-07-09T03:07:41.253Z,0
2017-07-09T03:08:21.708Z,0
2017-07-09T03:09:02.164Z,0
2017-07-09T03:09:42.623Z,0
2017-07-09T03:10:23.086Z,0
2017-07-09T03:11:03.537Z,0
2017-07-09T03:11:44.015Z,0
2017-07-09T03:12:24.470Z,0
2017-07-09T03:13:04.936Z,0
2017-07-09T03:13:45.401Z,0
2017-07-09T03:14:25.864Z,0
2017-07-09T03:15:06.326Z,0
2017-07-09T03:15:46.784Z,0
2017-07-09T03:16:27.246Z,0
2017-07-09T03:17:07.702Z,0
2017-07-09T03:17:48.161Z,0
2017-07-09T03:18:28.611Z,0
2017-07-09T03:19:09.080Z,0
2017-07-09T03:19:49.533Z,0
2017-07-09T03:20:29.990Z,0
2017-07-09T03:21:10.467Z,0
2017-07-09T03:21:50.924Z,0
2017-07-09T03:22:31.380Z,0
2017-07-09T03:23:11.841Z,0
2017-07-09T03:23:52.300Z,0
2017-07-09T03:24:32.764Z,0
2017-07-09T03:25:13.220Z,0
2017-07-09T03:25:53.673Z,0
2017-07-09T03:26:34.131Z,0
2017-07-09T03:27:14.590Z,0
2017-07-09T03:27:55.053Z,0
2017-07-09T03:28:35.508Z,0
2017-07-09T03:29:15.972Z,0
2017-07-09T03:29:56.426Z,0
2017-07-09T03:30:36.882Z,0
2017-07-09T03:31:17.340Z,0
2017-07-09T03:31:57.804Z,0
2017-07-09T03:32:38.267Z,0
2017-07-09T03:33:18.725Z,0
2017-07-09T03:33:59.175Z,0
2017-07-09T03:34:39.631Z,0
2017-07-09T03:35:20.086Z,0
2017-07-09T03:36:00.546Z,0
2017-07-09T03:36:41.007Z,0
2017-07-09T03:37:21.464Z,0
2017-07-09T03:38:01.921Z,0
2017-07-09T03:38:42.381Z,0
2017-07-09T03:39:22.847Z,0
2017-07-09T03:40:03.306Z,0
2017-07-09T03:40:43.765Z,0
2017-07-09T03:41:24.223Z,0
2017-07-09T03:42:04.683Z,0
2017-07-09T03:42:45.139Z,0
2017-07-09T03:43:25.600Z,0
2017-07-09T03:44:06.056Z,0
2017-07-09T03:44:46.514Z,0
2017-07-09T03:45:26.975Z,0
2017-07-09T03:46:07.433Z,0
2017-07-09T03:46:47.892Z,0
2017-07-09T03:47:28.352Z,0
2017-07-09T03:48:08.822Z,0
2017-07-09T03:48:49.287Z,0
2017-07-09T03:49:29.734Z,0
2017-07-09T03:50:10.194Z,0
2017-07-09T03:50:50.660Z,0
2017-07-09T03:51:31.119Z,0
2017-07-09T03:52:11.588Z,0
2017-07-09T03:52:52.038Z,0
2017-07-09T03:53:32.521Z,0
2017-07-09T03:54:13.012Z,0
2017-07-09T03:54:53.459Z,0
2017-07-09T03:55:33.899Z,0
2017-07-09T03:56:14.357Z,0
2017-07-09T03:56:54.820Z,0
2017-07-09T03:57:35.285Z,0
2017-07-09T03:58:15.733Z,0
2017-07-09T03:58:56.191Z,0
2017-07-09T03:59:36.659Z,0
2017-07-09T04:00:17.119Z,0
2017-07-09T04:00:57.577Z,0
2017-07-09T04:01:38.030Z,0
2017-07-09T04:02:18.495Z,0
2017-07-09T04:02:58.944Z,0
2017-07-09T04:03:39.400Z,0
2017-07-09T04:04:19.861Z,0
2017-07-09T04:05:00.314Z,0
2017-07-09T04:05:40.773Z,0
2017-07-09T04:06:21.220Z,0
2017-07-09T04:07:01.678Z,0
2017-07-09T04:07:42.139Z,0
2017-07-09T04:08:22.653Z,0
2017-07-09T04:09:03.054Z,0
2017-07-09T04:09:43.533Z,0
2017-07-09T04:10:23.993Z,0
2017-07-09T04:11:04.459Z,0
2017-07-09T04:11:44.921Z,0
2017-07-09T04:12:25.379Z,0
2017-07-09T04:13:05.845Z,0
2017-07-09T04:13:46.294Z,0
2017-07-09T04:14:26.756Z,0
2017-07-09T04:15:07.225Z,0
2017-07-09T04:15:47.686Z,0
2017-07-09T04:16:28.200Z,0
2017-07-09T04:17:08.665Z,0
2017-07-09T04:17:49.106Z,0
2017-07-09T04:18:29.562Z,0
2017-07-09T04:19:10.017Z,0
2017-07-09T04:19:50.469Z,0
2017-07-09T04:20:30.927Z,0
2017-07-09T04:21:11.375Z,0
2017-07-09T04:21:51.827Z,0
2017-07-09T04:22:32.286Z,0
2017-07-09T04:23:12.747Z,0
2017-07-09T04:23:53.207Z,0
2017-07-09T04:24:33.666Z,0
2017-07-09T04:25:14.126Z,0
2017-07-09T04:25:54.584Z,0
2017-07-09T04:26:35.028Z,0
2017-07-09T04:27:15.596Z,0
2017-07-09T04:27:56.051Z,0
2017-07-09T04:28:36.511Z,0
2017-07-09T04:29:16.977Z,0
2017-07-09T04:29:57.429Z,0
2017-07-09T04:30:37.887Z,0
2017-07-09T04:31:18.347Z,0
2017-07-09T04:31:58.810Z,0
2017-07-09T04:32:39.261Z,0
2017-07-09T04:33:19.719Z,0
2017-07-09T04:34:00.173Z,0
2017-07-09T04:34:40.635Z,0
2017-07-09T04:35:21.140Z,0
2017-07-09T04:36:01.603Z,0
2017-07-09T04:36:42.065Z,0
2017-07-09T04:37:22.521Z,0
2017-07-09T04:38:02.981Z,0
2017-07-09T04:38:43.446Z,0
2017-07-09T04:39:23.899Z,0
2017-07-09T04:40:04.356Z,0
2017-07-09T04:40:44.815Z,0
2017-07-09T04:41:25.286Z,0
2017-07-09T04:42:05.726Z,0
2017-07-09T04:42:46.182Z,0
2017-07-09T04:43:26.641Z,0
2017-07-09T04:44:07.103Z,0
2017-07-09T04:44:47.561Z,0
2017-07-09T04:45:28.016Z,0
2017-07-09T04:46:08.521Z,0
2017-07-09T04:46:48.931Z,0
2017-07-09T04:47:29.393Z,0
2017-07-09T04:48:09.852Z,0
2017-07-09T04:48:50.303Z,0
2017-07-09T04:49:30.760Z,0
2017-07-09T04:50:11.223Z,0
2017-07-09T04:50:51.684Z,0
2017-07-09T04:51:32.139Z,0
2017-07-09T04:52:12.592Z,0
2017-07-09T04:52:53.047Z,0
2017-07-09T04:53:33.500Z,0
2017-07-09T04:54:13.963Z,0
2017-07-09T04:54:54.422Z,0
2017-07-09T04:55:34.878Z,0
2017-07-09T04:56:15.341Z,0
2017-07-09T04:56:55.794Z,0
2017-07-09T04:57:36.273Z,0
2017-07-09T04:58:16.729Z,0
2017-07-09T04:58:57.186Z,0
2017-07-09T04:59:37.646Z,0
2017-07-09T05:00:18.099Z,0
2017-07-09T05:00:58.562Z,0
2017-07-09T05:01:39.022Z,0
2017-07-09T05:02:19.477Z,0
2017-07-09T05:02:59.941Z,0
2017-07-09T05:03:40.401Z,0
2017-07-09T05:04:20.864Z,0
2017-07-09T05:05:01.321Z,0
2017-07-09T05:05:41.776Z,0
2017-07-09T05:06:22.235Z,0
2017-07-09T05:07:02.691Z,0
2017-07-09T05:07:43.152Z,0
2017-07-09T05:08:23.610Z,0
2017-07-09T05:09:04.058Z,0
2017-07-09T05:09:44.509Z,0
2017-07-09T05:10:24.971Z,0
2017-07-09T05:11:05.433Z,0
2017-07-09T05:11:45.897Z,0
2017-07-09T05:12:26.344Z,0
2017-07-09T05:13:06.800Z,0
2017-07-09T05:13:47.283Z,0
2017-07-09T05:14:27.741Z,0
2017-07-09T05:15:08.199Z,0
2017-07-09T05:15:48.659Z,0
2017-07-09T05:16:29.164Z,0
2017-07-09T05:17:09.574Z,0
2017-07-09T05:17:50.036Z,0
2017-07-09T05:18:30.489Z,0
2017-07-09T05:19:10.948Z,0
2017-07-09T05:19:51.404Z,0
2017-07-09T05:20:31.869Z,0
2017-07-09T05:21:12.328Z,0
2017-07-09T05:21:52.789Z,0
2017-07-09T05:22:33.243Z,0
2017-07-09T05:23:13.701Z,0
2017-07-09T05:23:54.152Z,0
2017-07-09T05:24:34.609Z,0
2017-07-09T05:25:15.065Z,0
2017-07-09T05:25:55.527Z,0
2017-07-09T05:26:35.991Z,0
2017-07-09T05:27:16.453Z,0
2017-07-09T05:27:56.903Z,0
2017-07-09T05:28:37.363Z,0
2017-07-09T05:29:17.888Z,0
2017-07-09T05:31:30.873Z,0
2017-07-09T05:32:11.332Z,0
2017-07-09T05:32:51.792Z,0
2017-07-09T05:33:32.239Z,0
2017-07-09T05:34:12.700Z,0
2017-07-09T05:34:53.154Z,0
2017-07-09T05:35:33.612Z,0
2017-07-09T05:36:14.071Z,0
2017-07-09T05:36:54.531Z,0
2017-07-09T05:37:34.990Z,0
2017-07-09T05:38:15.447Z,0
2017-07-09T05:38:55.899Z,0
2017-07-09T05:39:36.353Z,0
2017-07-09T05:40:16.818Z,0
2017-07-09T05:40:57.270Z,0
2017-07-09T05:41:37.731Z,0
2017-07-09T05:42:18.178Z,0
2017-07-09T05:42:58.730Z,0
2017-07-09T05:43:39.075Z,0
2017-07-09T05:44:19.539Z,0
2017-07-09T05:44:59.989Z,0
2017-07-09T05:45:40.445Z,0
2017-07-09T05:46:20.905Z,0
2017-07-09T05:47:01.382Z,0
2017-07-09T05:47:41.852Z,0
2017-07-09T05:48:22.296Z,0
2017-07-09T05:49:02.751Z,0
2017-07-09T05:49:43.211Z,0
2017-07-09T05:50:23.669Z,0
2017-07-09T05:51:04.137Z,0
2017-07-09T05:51:44.602Z,0
2017-07-09T05:52:25.056Z,0
2017-07-09T05:53:05.517Z,0
2017-07-09T05:53:45.970Z,0
2017-07-09T05:54:26.427Z,0
2017-07-09T05:55:06.898Z,0
2017-07-09T05:55:47.360Z,0
2017-07-09T05:56:27.819Z,0
2017-07-09T05:57:08.281Z,0
2017-07-09T05:57:48.735Z,0
2017-07-09T05:58:29.194Z,0
2017-07-09T05:59:09.652Z,0
2017-07-09T05:59:50.105Z,0
2017-07-09T06:00:30.560Z,0
2017-07-09T06:01:11.023Z,0
2017-07-09T06:01:51.487Z,0
2017-07-09T06:02:31.941Z,0
2017-07-09T06:03:12.391Z,0
2017-07-09T06:03:52.852Z,0
2017-07-09T06:04:33.312Z,0
2017-07-09T06:05:13.774Z,0
2017-07-09T06:05:54.218Z,0
2017-07-09T06:06:34.666Z,0
2017-07-09T06:07:15.124Z,0
2017-07-09T06:07:55.582Z,0
2017-07-09T06:08:36.038Z,0
2017-07-09T06:09:16.498Z,0
2017-07-09T06:09:56.955Z,0
2017-07-09T06:10:37.412Z,0
2017-07-09T06:11:17.870Z,0
2017-07-09T06:11:58.326Z,0
2017-07-09T06:12:38.787Z,0
2017-07-09T06:13:19.248Z,0
2017-07-09T06:13:59.716Z,0
2017-07-09T06:14:40.163Z,0
2017-07-09T06:15:20.622Z,0
2017-07-09T06:16:01.080Z,0
2017-07-09T06:16:41.537Z,0
2017-07-09T06:17:22.001Z,0
2017-07-09T06:18:02.447Z,0
2017-07-09T06:18:42.887Z,0
2017-07-09T06:19:23.346Z,0
2017-07-09T06:20:03.797Z,0
2017-07-09T06:20:44.271Z,0
2017-07-09T06:21:24.720Z,0
2017-07-09T06:22:05.165Z,0
2017-07-09T06:22:45.627Z,0
2017-07-09T06:23:26.085Z,0
2017-07-09T06:24:06.594Z,0
2017-07-09T06:24:47.001Z,0
2017-07-09T06:25:27.462Z,0
2017-07-09T06:26:07.915Z,0
2017-07-09T06:26:48.379Z,0
2017-07-09T06:27:28.841Z,0
2017-07-09T06:28:09.299Z,0
2017-07-09T06:28:49.757Z,0
2017-07-09T06:29:30.229Z,0
2017-07-09T06:30:10.671Z,0
2017-07-09T06:30:51.131Z,0
2017-07-09T06:31:31.588Z,0
2017-07-09T06:32:12.042Z,0
2017-07-09T06:32:52.501Z,0
2017-07-09T06:33:32.966Z,0
2017-07-09T06:34:13.416Z,0
2017-07-09T06:34:53.873Z,0
2017-07-09T06:35:34.332Z,0
2017-07-09T06:36:14.791Z,0
2017-07-09T06:36:55.247Z,0
2017-07-09T06:37:35.706Z,0
2017-07-09T06:38:16.172Z,0
2017-07-09T06:38:56.627Z,0
2017-07-09T06:39:37.085Z,0
2017-07-09T06:40:17.567Z,0
2017-07-09T06:40:58.001Z,0
2017-07-09T06:41:38.456Z,0
2017-07-09T06:42:18.916Z,30
2017-07-09T06:42:59.374Z,30
2017-07-09T06:43:39.836Z,30
2017-07-09T06:44:20.298Z,30
2017-07-09T06:45:00.824Z,30
2017-07-09T06:45:41.282Z,30
2017-07-09T06:46:21.743Z,30
2017-07-09T06:47:02.203Z,30
2017-07-09T06:47:42.656Z,30
2017-07-09T06:48:23.117Z,30
2017-07-09T06:49:03.573Z,30
2017-07-09T06:49:44.029Z,30
2017-07-09T06:50:24.490Z,30
2017-07-09T06:51:04.948Z,30
2017-07-09T06:51:45.403Z,30
2017-07-09T06:52:25.887Z,25
2017-07-09T06:53:06.365Z,35
2017-07-09T06:53:46.821Z,25
2017-07-09T06:54:27.287Z,45
2017-07-09T06:55:07.750Z,45
2017-07-09T06:55:48.209Z,45
2017-07-09T06:56:28.664Z,45
2017-07-09T06:57:09.122Z,45
2017-07-09T06:57:49.592Z,50
2017-07-09T06:58:30.052Z,50
2017-07-09T06:59:10.507Z,50
2017-07-09T06:59:50.962Z,50
2017-07-09T07:00:31.424Z,50
2017-07-09T07:01:11.870Z,50
2017-07-09T07:01:53.282Z,50
2017-07-09T07:02:33.875Z,50
2017-07-09T07:03:14.330Z,50
2017-07-09T07:03:54.783Z,50
2017-07-09T07:04:35.274Z,50
2017-07-09T07:05:15.727Z,50
2017-07-09T07:05:56.186Z,50
2017-07-09T07:06:36.632Z,50
2017-07-09T07:07:17.451Z,50
2017-07-09T07:07:57.912Z,50
2017-07-09T07:08:38.382Z,50
2017-07-09T07:09:18.830Z,50
2017-07-09T07:09:59.285Z,50
2017-07-09T07:10:39.727Z,50
2017-07-09T07:11:20.188Z,50
2017-07-09T07:12:00.626Z,50
2017-07-09T07:12:41.083Z,50
2017-07-09T07:13:21.543Z,50
2017-07-09T07:14:01.996Z,50
2017-07-09T07:14:43.064Z,50
2017-07-09T07:15:23.623Z,50
2017-07-09T07:16:04.085Z,50
2017-07-09T07:16:44.540Z,50
2017-07-09T07:17:24.991Z,40
2017-07-09T07:18:05.460Z,50
2017-07-09T07:18:45.953Z,50
2017-07-09T07:19:26.414Z,50
2017-07-09T07:20:06.858Z,55
2017-07-09T07:22:19.898Z,50
2017-07-09T07:23:00.368Z,55
2017-07-09T07:23:40.820Z,55
2017-07-09T07:24:21.269Z,55
2017-07-09T07:25:01.726Z,55
2017-07-09T07:25:42.196Z,55
2017-07-09T07:26:23.458Z,55
2017-07-09T07:27:03.109Z,55
2017-07-09T07:27:43.562Z,55
2017-07-09T07:28:24.038Z,55
2017-07-09T07:29:04.496Z,55
2017-07-09T07:29:44.956Z,55
2017-07-09T07:30:25.415Z,55
2017-07-09T07:31:05.868Z,55
2017-07-09T07:31:46.320Z,55
2017-07-09T07:32:26.761Z,55
2017-07-09T07:33:07.215Z,55
2017-07-09T07:33:47.672Z,55
2017-07-09T07:34:28.131Z,55
2017-07-09T07:35:08.569Z,55
2017-07-09T07:35:49.031Z,55
2017-07-09T07:36:29.500Z,55
2017-07-09T07:37:10.107Z,55
2017-07-09T07:37:50.402Z,55
2017-07-09T07:38:30.865Z,55
2017-07-09T07:39:11.324Z,55
2017-07-09T07:39:51.787Z,55
2017-07-09T07:40:32.240Z,55
2017-07-09T07:42:50.257Z,60
2017-07-09T07:43:30.716Z,60
2017-07-09T07:44:11.159Z,60
2017-07-09T07:44:51.619Z,60
2017-07-09T07:45:32.083Z,60
2017-07-09T07:46:12.547Z,60
2017-07-09T07:46:52.993Z,60
2017-07-09T07:47:33.457Z,55
2017-07-09T07:48:13.912Z,50
2017-07-09T07:48:54.360Z,50
2017-07-09T07:49:34.804Z,35
2017-07-09T07:50:15.259Z,50
2017-07-09T07:50:55.713Z,50
2017-07-09T07:51:36.167Z,50
2017-07-09T07:52:16.608Z,55
2017-07-09T07:52:57.208Z,45
2017-07-09T07:55:10.261Z,55
2017-07-09T07:55:50.718Z,55
2017-07-09T07:56:31.173Z,60
2017-07-09T07:57:11.633Z,60
2017-07-09T07:57:52.084Z,60
2017-07-09T07:58:32.526Z,65
2017-07-09T07:59:12.980Z,65
2017-07-09T07:59:53.433Z,65
2017-07-09T08:00:33.901Z,50
2017-07-09T08:01:14.396Z,35
2017-07-09T08:01:54.832Z,65
2017-07-09T08:02:35.291Z,60
2017-07-09T08:03:15.750Z,65
2017-07-09T08:03:56.206Z,70
2017-07-09T08:04:36.712Z,55
2017-07-09T08:05:17.250Z,60
2017-07-09T08:05:57.720Z,60
2017-07-09T08:06:38.257Z,65
2017-07-09T08:07:18.850Z,65
2017-07-09T08:07:59.409Z,35
2017-07-09T08:08:39.866Z,65
2017-07-09T08:09:20.323Z,60
2017-07-09T08:10:00.771Z,65
2017-07-09T08:10:41.213Z,65
2017-07-09T08:11:21.659Z,65
2017-07-09T08:12:02.096Z,65
2017-07-09T08:12:42.545Z,60
2017-07-09T08:13:23.009Z,60
2017-07-09T08:14:03.443Z,50
2017-07-09T08:14:43.897Z,60
2017-07-09T08:15:24.356Z,60
2017-07-09T08:16:04.800Z,60
2017-07-09T08:16:45.255Z,60
2017-07-09T08:17:25.690Z,60
2017-07-09T08:18:06.187Z,60
2017-07-09T08:20:19.242Z,60
2017-07-09T08:20:59.697Z,60
2017-07-09T08:21:40.147Z,60
2017-07-09T08:22:20.630Z,60
2017-07-09T08:23:01.079Z,60
2017-07-09T08:23:41.534Z,60
2017-07-09T08:24:21.983Z,60
2017-07-09T08:25:02.443Z,65
2017-07-09T08:25:42.904Z,65
2017-07-09T08:26:23.363Z,65
2017-07-09T08:27:04.611Z,60
2017-07-09T08:27:45.074Z,65
2017-07-09T08:28:25.521Z,65
2017-07-09T08:29:06.013Z,65
2017-07-09T08:29:46.465Z,65
2017-07-09T08:30:26.924Z,65
2017-07-09T08:31:07.390Z,65
2017-07-09T08:31:47.846Z,65
2017-07-09T08:32:28.299Z,65
2017-07-09T08:33:08.748Z,65
2017-07-09T08:33:49.205Z,65
2017-07-09T08:34:29.663Z,65
2017-07-09T08:35:10.123Z,65
2017-07-09T08:35:50.581Z,65
2017-07-09T08:36:31.032Z,65
2017-07-09T08:37:11.487Z,65
2017-07-09T08:37:51.948Z,65
2017-07-09T08:38:32.392Z,65
2017-07-09T08:39:12.851Z,65
2017-07-09T08:39:53.298Z,65
2017-07-09T08:40:33.754Z,65
2017-07-09T08:41:14.206Z,65
2017-07-09T08:41:54.663Z,70
2017-07-09T08:42:35.124Z,70
2017-07-09T08:43:15.583Z,70
2017-07-09T08:43:56.050Z,70
2017-07-09T08:44:36.522Z,70
2017-07-09T08:45:16.986Z,65
2017-07-09T08:45:57.446Z,70
2017-07-09T08:46:37.900Z,65
2017-07-09T08:47:18.354Z,65
2017-07-09T08:47:58.812Z,70
2017-07-09T08:48:39.261Z,70
2017-07-09T08:49:19.718Z,70
2017-07-09T08:50:00.184Z,70
2017-07-09T08:50:40.642Z,75
2017-07-09T08:51:21.102Z,70
2017-07-09T08:52:01.565Z,70
2017-07-09T08:52:42.018Z,60
2017-07-09T08:53:22.478Z,50
2017-07-09T08:54:02.935Z,55
2017-07-09T08:54:43.392Z,55
2017-07-09T08:55:23.855Z,70
2017-07-09T08:56:04.311Z,75
2017-07-09T08:56:44.764Z,75
2017-07-09T08:57:25.229Z,75
2017-07-09T08:58:05.681Z,75
2017-07-09T08:58:46.137Z,75
2017-07-09T08:59:26.602Z,75
2017-07-09T09:00:07.060Z,75
2017-07-09T09:00:47.518Z,75
2017-07-09T09:01:27.979Z,80
2017-07-09T09:02:08.432Z,65
2017-07-09T09:02:48.902Z,75
2017-07-09T09:03:29.356Z,70
2017-07-09T09:04:09.812Z,85
2017-07-09T09:04:50.270Z,90
2017-07-09T09:05:30.740Z,85
2017-07-09T09:06:11.247Z,80
2017-07-09T09:06:51.644Z,65
2017-07-09T09:07:32.120Z,65
2017-07-09T09:08:12.578Z,60
2017-07-09T09:08:53.054Z,85
2017-07-09T09:09:33.513Z,75
2017-07-09T09:10:13.983Z,70
2017-07-09T09:10:54.436Z,65
2017-07-09T09:11:34.892Z,65
2017-07-09T09:12:15.349Z,65
2017-07-09T09:12:55.808Z,70
2017-07-09T09:13:36.265Z,60
2017-07-09T09:14:16.724Z,75
2017-07-09T09:14:57.179Z,65
2017-07-09T09:15:37.632Z,70
2017-07-09T09:16:18.086Z,85
2017-07-09T09:16:58.542Z,60
2017-07-09T09:17:39.000Z,65
2017-07-09T09:18:19.437Z,60
2017-07-09T09:18:59.894Z,55
2017-07-09T09:19:40.357Z,55
2017-07-09T09:20:20.818Z,65
2017-07-09T09:21:01.278Z,50
2017-07-09T09:21:41.732Z,50
2017-07-09T09:22:22.189Z,50
2017-07-09T09:23:02.646Z,45
2017-07-09T09:23:43.107Z,50
2017-07-09T09:24:23.567Z,50
2017-07-09T09:25:04.015Z,50
2017-07-09T09:25:44.534Z,55
2017-07-09T09:26:24.963Z,50
2017-07-09T09:27:05.422Z,60
2017-07-09T09:27:45.879Z,65
2017-07-09T09:28:26.340Z,50
2017-07-09T09:29:06.796Z,60
2017-07-09T09:29:47.260Z,50
2017-07-09T09:30:27.715Z,45
2017-07-09T09:31:08.301Z,55
2017-07-09T09:31:48.764Z,50
2017-07-09T09:32:29.209Z,55
2017-07-09T09:33:09.668Z,50
2017-07-09T09:33:50.127Z,50
2017-07-09T09:34:30.589Z,60
2017-07-09T09:35:11.044Z,45
2017-07-09T09:35:51.500Z,55
2017-07-09T09:36:31.948Z,50
2017-07-09T09:37:12.403Z,60
2017-07-09T09:37:52.849Z,70
2017-07-09T09:38:33.305Z,85
2017-07-09T09:39:13.869Z,90
2017-07-09T09:39:54.320Z,85
2017-07-09T09:40:34.787Z,85
2017-07-09T09:41:15.243Z,80
2017-07-09T09:41:55.709Z,80
2017-07-09T09:42:36.170Z,80
2017-07-09T09:43:16.615Z,85
2017-07-09T09:43:57.075Z,85
2017-07-09T09:44:37.533Z,85
2017-07-09T09:45:17.991Z,80
2017-07-09T09:45:58.448Z,80
2017-07-09T09:46:38.899Z,85
2017-07-09T09:47:19.354Z,85
2017-07-09T09:47:59.815Z,85
2017-07-09T09:48:40.273Z,85
2017-07-09T09:49:20.723Z,90
2017-07-09T09:50:01.188Z,90
2017-07-09T09:50:41.628Z,90
2017-07-09T09:51:22.066Z,90
2017-07-09T09:52:02.526Z,90
2017-07-09T09:52:42.983Z,90
2017-07-09T09:53:23.440Z,90
2017-07-09T09:54:03.893Z,90
2017-07-09T09:54:44.386Z,90
2017-07-09T09:55:24.844Z,90
2017-07-09T09:56:05.313Z,90
2017-07-09T09:56:45.771Z,90
2017-07-09T09:57:26.213Z,90
2017-07-09T09:58:06.670Z,90
2017-07-09T09:58:47.118Z,90